sensor_id;sensor_type;location;lat;lon;timestamp;P1;durP1;ratioP1;P2;durP2;ratioP2
54899;SDS011;40801;41.924;25.562;2023-08-12T00:00:05;5.32;;;5.00;;
54899;SDS011;40801;41.924;25.562;2023-08-12T00:02:37;4.90;;;4.60;;
54899;SDS011;40801;41.924;25.562;2023-08-12T00:05:03;5.80;;;5.32;;
54899;SDS011;40801;41.924;25.562;2023-08-12T00:07:29;5.78;;;5.40;;
54899;SDS011;40801;41.924;25.562;2023-08-12T00:09:55;5.65;;;5.35;;
54899;SDS011;40801;41.924;25.562;2023-08-12T00:12:21;6.07;;;5.57;;
54899;SDS011;40801;41.924;25.562;2023-08-12T00:14:46;5.20;;;4.85;;
54899;SDS011;40801;41.924;25.562;2023-08-12T00:17:12;5.40;;;4.90;;
54899;SDS011;40801;41.924;25.562;2023-08-12T00:19:37;5.60;;;5.18;;
54899;SDS011;40801;41.924;25.562;2023-08-12T00:22:03;5.78;;;5.28;;
54899;SDS011;40801;41.924;25.562;2023-08-12T00:24:29;5.20;;;4.80;;
54899;SDS011;40801;41.924;25.562;2023-08-12T00:26:55;5.30;;;4.90;;
54899;SDS011;40801;41.924;25.562;2023-08-12T00:29:20;5.38;;;5.07;;
54899;SDS011;40801;41.924;25.562;2023-08-12T00:31:46;5.88;;;5.55;;
54899;SDS011;40801;41.924;25.562;2023-08-12T00:34:11;7.60;;;5.28;;
54899;SDS011;40801;41.924;25.562;2023-08-12T00:36:37;4.85;;;4.55;;
54899;SDS011;40801;41.924;25.562;2023-08-12T00:39:02;4.93;;;4.72;;
54899;SDS011;40801;41.924;25.562;2023-08-12T00:41:28;5.28;;;4.88;;
54899;SDS011;40801;41.924;25.562;2023-08-12T00:43:54;5.65;;;5.30;;
54899;SDS011;40801;41.924;25.562;2023-08-12T00:46:19;5.40;;;5.00;;
54899;SDS011;40801;41.924;25.562;2023-08-12T00:48:45;5.07;;;4.68;;
54899;SDS011;40801;41.924;25.562;2023-08-12T00:51:11;5.57;;;5.18;;
54899;SDS011;40801;41.924;25.562;2023-08-12T00:53:36;5.15;;;4.95;;
54899;SDS011;40801;41.924;25.562;2023-08-12T00:56:02;4.65;;;4.45;;
54899;SDS011;40801;41.924;25.562;2023-08-12T00:58:28;5.10;;;4.90;;
54899;SDS011;40801;41.924;25.562;2023-08-12T01:00:54;5.80;;;5.38;;
54899;SDS011;40801;41.924;25.562;2023-08-12T01:03:20;5.53;;;5.13;;
54899;SDS011;40801;41.924;25.562;2023-08-12T01:05:46;5.60;;;5.10;;
54899;SDS011;40801;41.924;25.562;2023-08-12T01:08:12;5.70;;;5.40;;
54899;SDS011;40801;41.924;25.562;2023-08-12T01:10:39;6.20;;;5.70;;
54899;SDS011;40801;41.924;25.562;2023-08-12T01:16:12;5.88;;;5.57;;
54899;SDS011;40801;41.924;25.562;2023-08-12T01:18:40;6.17;;;5.67;;
54899;SDS011;40801;41.924;25.562;2023-08-12T01:21:06;5.72;;;5.22;;
54899;SDS011;40801;41.924;25.562;2023-08-12T01:23:34;5.55;;;5.25;;
54899;SDS011;40801;41.924;25.562;2023-08-12T01:25:59;5.68;;;5.38;;
54899;SDS011;40801;41.924;25.562;2023-08-12T01:28:25;6.10;;;5.80;;
54899;SDS011;40801;41.924;25.562;2023-08-12T01:30:55;5.88;;;5.50;;
54899;SDS011;40801;41.924;25.562;2023-08-12T01:33:30;5.95;;;5.45;;
54899;SDS011;40801;41.924;25.562;2023-08-12T01:36:13;5.65;;;5.10;;
54899;SDS011;40801;41.924;25.562;2023-08-12T01:38:42;5.43;;;5.03;;
54899;SDS011;40801;41.924;25.562;2023-08-12T01:41:09;5.97;;;5.57;;
54899;SDS011;40801;41.924;25.562;2023-08-12T01:43:36;6.20;;;5.80;;
54899;SDS011;40801;41.924;25.562;2023-08-12T01:46:03;6.45;;;5.43;;
54899;SDS011;40801;41.924;25.562;2023-08-12T01:48:28;6.03;;;5.65;;
54899;SDS011;40801;41.924;25.562;2023-08-12T01:50:54;5.60;;;5.30;;
54899;SDS011;40801;41.924;25.562;2023-08-12T01:53:19;6.63;;;6.15;;
54899;SDS011;40801;41.924;25.562;2023-08-12T01:55:45;6.20;;;5.70;;
54899;SDS011;40801;41.924;25.562;2023-08-12T01:58:10;6.30;;;5.97;;
54899;SDS011;40801;41.924;25.562;2023-08-12T02:00:36;5.90;;;5.50;;
54899;SDS011;40801;41.924;25.562;2023-08-12T02:03:01;6.00;;;5.60;;
54899;SDS011;40801;41.924;25.562;2023-08-12T02:05:27;6.35;;;5.95;;
54899;SDS011;40801;41.924;25.562;2023-08-12T02:07:52;6.18;;;5.78;;
54899;SDS011;40801;41.924;25.562;2023-08-12T02:10:18;5.53;;;5.22;;
54899;SDS011;40801;41.924;25.562;2023-08-12T02:12:43;6.13;;;5.82;;
54899;SDS011;40801;41.924;25.562;2023-08-12T02:15:09;6.00;;;5.60;;
54899;SDS011;40801;41.924;25.562;2023-08-12T02:17:34;6.28;;;5.88;;
54899;SDS011;40801;41.924;25.562;2023-08-12T02:20:00;6.20;;;5.85;;
54899;SDS011;40801;41.924;25.562;2023-08-12T02:22:25;6.30;;;5.85;;
54899;SDS011;40801;41.924;25.562;2023-08-12T02:24:50;5.72;;;5.32;;
54899;SDS011;40801;41.924;25.562;2023-08-12T02:27:16;6.75;;;6.10;;
54899;SDS011;40801;41.924;25.562;2023-08-12T02:29:41;6.10;;;5.70;;
54899;SDS011;40801;41.924;25.562;2023-08-12T02:32:07;5.88;;;5.57;;
54899;SDS011;40801;41.924;25.562;2023-08-12T02:34:32;5.95;;;5.55;;
54899;SDS011;40801;41.924;25.562;2023-08-12T02:36:57;5.80;;;5.50;;
54899;SDS011;40801;41.924;25.562;2023-08-12T02:39:23;6.38;;;5.93;;
54899;SDS011;40801;41.924;25.562;2023-08-12T02:41:48;6.18;;;5.72;;
54899;SDS011;40801;41.924;25.562;2023-08-12T02:44:14;6.25;;;5.80;;
54899;SDS011;40801;41.924;25.562;2023-08-12T02:46:39;6.68;;;6.20;;
54899;SDS011;40801;41.924;25.562;2023-08-12T02:49:05;6.53;;;6.15;;
54899;SDS011;40801;41.924;25.562;2023-08-12T02:51:30;5.72;;;5.35;;
54899;SDS011;40801;41.924;25.562;2023-08-12T02:53:55;5.95;;;5.63;;
54899;SDS011;40801;41.924;25.562;2023-08-12T02:56:21;5.93;;;5.63;;
54899;SDS011;40801;41.924;25.562;2023-08-12T02:58:46;6.60;;;6.20;;
54899;SDS011;40801;41.924;25.562;2023-08-12T03:01:12;6.93;;;6.32;;
54899;SDS011;40801;41.924;25.562;2023-08-12T03:03:38;6.38;;;6.00;;
54899;SDS011;40801;41.924;25.562;2023-08-12T03:06:03;6.60;;;6.20;;
54899;SDS011;40801;41.924;25.562;2023-08-12T03:08:28;5.70;;;5.40;;
54899;SDS011;40801;41.924;25.562;2023-08-12T03:10:58;6.22;;;5.82;;
54899;SDS011;40801;41.924;25.562;2023-08-12T03:13:27;6.20;;;5.80;;
54899;SDS011;40801;41.924;25.562;2023-08-12T03:15:53;6.20;;;5.75;;
54899;SDS011;40801;41.924;25.562;2023-08-12T03:18:19;6.03;;;5.72;;
54899;SDS011;40801;41.924;25.562;2023-08-12T03:20:44;7.05;;;6.40;;
54899;SDS011;40801;41.924;25.562;2023-08-12T03:23:10;6.30;;;5.90;;
54899;SDS011;40801;41.924;25.562;2023-08-12T03:25:35;6.60;;;6.30;;
54899;SDS011;40801;41.924;25.562;2023-08-12T03:28:00;5.75;;;5.45;;
54899;SDS011;40801;41.924;25.562;2023-08-12T03:30:26;6.57;;;6.13;;
54899;SDS011;40801;41.924;25.562;2023-08-12T03:32:51;6.57;;;6.03;;
54899;SDS011;40801;41.924;25.562;2023-08-12T03:35:17;6.80;;;6.20;;
54899;SDS011;40801;41.924;25.562;2023-08-12T03:37:43;6.60;;;6.20;;
54899;SDS011;40801;41.924;25.562;2023-08-12T03:40:08;6.10;;;5.78;;
54899;SDS011;40801;41.924;25.562;2023-08-12T03:42:34;6.03;;;5.53;;
54899;SDS011;40801;41.924;25.562;2023-08-12T03:45:00;6.20;;;5.80;;
54899;SDS011;40801;41.924;25.562;2023-08-12T03:47:25;6.70;;;6.20;;
54899;SDS011;40801;41.924;25.562;2023-08-12T03:49:50;6.40;;;5.90;;
54899;SDS011;40801;41.924;25.562;2023-08-12T03:52:16;5.93;;;5.63;;
54899;SDS011;40801;41.924;25.562;2023-08-12T03:54:42;6.38;;;5.88;;
54899;SDS011;40801;41.924;25.562;2023-08-12T03:57:07;6.40;;;6.05;;
54899;SDS011;40801;41.924;25.562;2023-08-12T03:59:33;6.75;;;6.15;;
54899;SDS011;40801;41.924;25.562;2023-08-12T04:01:58;6.25;;;5.82;;
54899;SDS011;40801;41.924;25.562;2023-08-12T04:04:23;6.05;;;5.65;;
54899;SDS011;40801;41.924;25.562;2023-08-12T04:06:49;6.57;;;6.18;;
54899;SDS011;40801;41.924;25.562;2023-08-12T04:09:19;7.00;;;6.60;;
54899;SDS011;40801;41.924;25.562;2023-08-12T04:11:45;5.97;;;5.57;;
54899;SDS011;40801;41.924;25.562;2023-08-12T04:14:12;6.18;;;5.78;;
54899;SDS011;40801;41.924;25.562;2023-08-12T04:16:38;6.38;;;5.93;;
54899;SDS011;40801;41.924;25.562;2023-08-12T04:19:04;7.00;;;6.50;;
54899;SDS011;40801;41.924;25.562;2023-08-12T04:21:29;6.45;;;6.03;;
54899;SDS011;40801;41.924;25.562;2023-08-12T04:23:55;6.60;;;6.18;;
54899;SDS011;40801;41.924;25.562;2023-08-12T04:26:20;7.00;;;6.40;;
54899;SDS011;40801;41.924;25.562;2023-08-12T04:28:45;7.32;;;6.65;;
54899;SDS011;40801;41.924;25.562;2023-08-12T04:31:11;7.28;;;6.70;;
54899;SDS011;40801;41.924;25.562;2023-08-12T04:33:36;6.28;;;5.78;;
54899;SDS011;40801;41.924;25.562;2023-08-12T04:36:02;6.45;;;6.13;;
54899;SDS011;40801;41.924;25.562;2023-08-12T04:38:27;6.53;;;6.03;;
54899;SDS011;40801;41.924;25.562;2023-08-12T04:40:53;7.10;;;6.40;;
54899;SDS011;40801;41.924;25.562;2023-08-12T04:43:19;7.05;;;6.50;;
54899;SDS011;40801;41.924;25.562;2023-08-12T04:45:45;6.72;;;6.32;;
54899;SDS011;40801;41.924;25.562;2023-08-12T04:48:12;7.68;;;6.90;;
54899;SDS011;40801;41.924;25.562;2023-08-12T04:50:37;7.40;;;6.90;;
54899;SDS011;40801;41.924;25.562;2023-08-12T04:53:04;7.82;;;7.30;;
54899;SDS011;40801;41.924;25.562;2023-08-12T04:55:30;8.40;;;7.70;;
54899;SDS011;40801;41.924;25.562;2023-08-12T04:57:55;9.02;;;8.50;;
54899;SDS011;40801;41.924;25.562;2023-08-12T05:00:21;12.07;;;9.32;;
54899;SDS011;40801;41.924;25.562;2023-08-12T05:02:47;8.07;;;7.57;;
54899;SDS011;40801;41.924;25.562;2023-08-12T05:05:12;8.80;;;8.10;;
54899;SDS011;40801;41.924;25.562;2023-08-12T05:07:38;8.15;;;7.45;;
54899;SDS011;40801;41.924;25.562;2023-08-12T05:10:03;8.45;;;7.78;;
54899;SDS011;40801;41.924;25.562;2023-08-12T05:12:29;8.65;;;7.95;;
54899;SDS011;40801;41.924;25.562;2023-08-12T05:14:54;8.20;;;7.60;;
54899;SDS011;40801;41.924;25.562;2023-08-12T05:17:20;8.23;;;7.40;;
54899;SDS011;40801;41.924;25.562;2023-08-12T05:19:45;7.47;;;6.88;;
54899;SDS011;40801;41.924;25.562;2023-08-12T05:22:11;8.30;;;7.63;;
54899;SDS011;40801;41.924;25.562;2023-08-12T05:24:36;9.30;;;6.90;;
54899;SDS011;40801;41.924;25.562;2023-08-12T05:27:02;7.55;;;6.85;;
54899;SDS011;40801;41.924;25.562;2023-08-12T05:29:28;7.32;;;6.72;;
54899;SDS011;40801;41.924;25.562;2023-08-12T05:31:53;7.47;;;6.90;;
54899;SDS011;40801;41.924;25.562;2023-08-12T05:34:18;6.55;;;6.05;;
54899;SDS011;40801;41.924;25.562;2023-08-12T05:36:44;6.03;;;5.63;;
54899;SDS011;40801;41.924;25.562;2023-08-12T05:39:09;5.57;;;5.15;;
54899;SDS011;40801;41.924;25.562;2023-08-12T05:41:35;6.32;;;5.82;;
54899;SDS011;40801;41.924;25.562;2023-08-12T05:44:00;6.47;;;5.85;;
54899;SDS011;40801;41.924;25.562;2023-08-12T05:46:25;6.07;;;5.50;;
54899;SDS011;40801;41.924;25.562;2023-08-12T05:48:51;6.68;;;6.10;;
54899;SDS011;40801;41.924;25.562;2023-08-12T05:51:16;5.47;;;5.10;;
54899;SDS011;40801;41.924;25.562;2023-08-12T05:53:41;5.47;;;5.07;;
54899;SDS011;40801;41.924;25.562;2023-08-12T05:56:07;6.05;;;5.43;;
54899;SDS011;40801;41.924;25.562;2023-08-12T05:58:32;5.63;;;5.18;;
54899;SDS011;40801;41.924;25.562;2023-08-12T06:00:57;5.20;;;4.80;;
54899;SDS011;40801;41.924;25.562;2023-08-12T06:03:23;5.22;;;4.93;;
54899;SDS011;40801;41.924;25.562;2023-08-12T06:05:48;4.97;;;4.68;;
54899;SDS011;40801;41.924;25.562;2023-08-12T06:08:14;5.45;;;5.05;;
54899;SDS011;40801;41.924;25.562;2023-08-12T06:10:40;5.28;;;4.78;;
54899;SDS011;40801;41.924;25.562;2023-08-12T06:13:05;5.07;;;4.80;;
54899;SDS011;40801;41.924;25.562;2023-08-12T06:15:31;5.75;;;5.15;;
54899;SDS011;40801;41.924;25.562;2023-08-12T06:17:57;4.60;;;4.20;;
54899;SDS011;40801;41.924;25.562;2023-08-12T06:20:25;5.57;;;4.45;;
54899;SDS011;40801;41.924;25.562;2023-08-12T06:22:51;4.63;;;4.40;;
54899;SDS011;40801;41.924;25.562;2023-08-12T06:25:17;9.77;;;4.80;;
54899;SDS011;40801;41.924;25.562;2023-08-12T06:27:43;5.32;;;4.93;;
54899;SDS011;40801;41.924;25.562;2023-08-12T06:30:09;5.18;;;4.75;;
54899;SDS011;40801;41.924;25.562;2023-08-12T06:32:35;5.38;;;4.90;;
54899;SDS011;40801;41.924;25.562;2023-08-12T06:35:00;4.93;;;4.53;;
54899;SDS011;40801;41.924;25.562;2023-08-12T06:37:26;4.82;;;4.35;;
54899;SDS011;40801;41.924;25.562;2023-08-12T06:39:51;4.65;;;4.28;;
54899;SDS011;40801;41.924;25.562;2023-08-12T06:42:17;5.00;;;4.50;;
54899;SDS011;40801;41.924;25.562;2023-08-12T06:44:42;4.25;;;3.97;;
54899;SDS011;40801;41.924;25.562;2023-08-12T06:47:07;4.57;;;4.15;;
54899;SDS011;40801;41.924;25.562;2023-08-12T06:49:33;4.97;;;4.57;;
54899;SDS011;40801;41.924;25.562;2023-08-12T06:51:58;4.47;;;4.18;;
54899;SDS011;40801;41.924;25.562;2023-08-12T06:54:23;4.68;;;4.28;;
54899;SDS011;40801;41.924;25.562;2023-08-12T06:56:49;4.22;;;3.92;;
54899;SDS011;40801;41.924;25.562;2023-08-12T06:59:15;3.92;;;3.72;;
54899;SDS011;40801;41.924;25.562;2023-08-12T07:01:40;4.28;;;3.97;;
54899;SDS011;40801;41.924;25.562;2023-08-12T07:04:06;4.38;;;3.65;;
54899;SDS011;40801;41.924;25.562;2023-08-12T07:06:31;4.20;;;3.90;;
54899;SDS011;40801;41.924;25.562;2023-08-12T07:08:57;3.55;;;3.35;;
54899;SDS011;40801;41.924;25.562;2023-08-12T07:11:22;4.22;;;3.97;;
54899;SDS011;40801;41.924;25.562;2023-08-12T07:13:48;5.47;;;3.92;;
54899;SDS011;40801;41.924;25.562;2023-08-12T07:16:13;3.85;;;3.55;;
54899;SDS011;40801;41.924;25.562;2023-08-12T07:18:38;4.28;;;3.83;;
54899;SDS011;40801;41.924;25.562;2023-08-12T07:21:04;3.58;;;3.28;;
54899;SDS011;40801;41.924;25.562;2023-08-12T07:23:29;3.40;;;3.17;;
54899;SDS011;40801;41.924;25.562;2023-08-12T07:25:55;3.53;;;3.38;;
54899;SDS011;40801;41.924;25.562;2023-08-12T07:28:20;4.22;;;3.72;;
54899;SDS011;40801;41.924;25.562;2023-08-12T07:30:46;5.55;;;3.42;;
54899;SDS011;40801;41.924;25.562;2023-08-12T07:33:13;3.67;;;3.45;;
54899;SDS011;40801;41.924;25.562;2023-08-12T07:35:38;3.35;;;3.05;;
54899;SDS011;40801;41.924;25.562;2023-08-12T07:38:04;3.92;;;3.63;;
54899;SDS011;40801;41.924;25.562;2023-08-12T07:40:29;3.05;;;2.85;;
54899;SDS011;40801;41.924;25.562;2023-08-12T07:42:54;3.20;;;2.90;;
54899;SDS011;40801;41.924;25.562;2023-08-12T07:45:21;3.25;;;3.05;;
54899;SDS011;40801;41.924;25.562;2023-08-12T07:47:47;6.35;;;4.00;;
54899;SDS011;40801;41.924;25.562;2023-08-12T07:50:14;3.50;;;3.20;;
54899;SDS011;40801;41.924;25.562;2023-08-12T07:52:40;3.45;;;3.20;;
54899;SDS011;40801;41.924;25.562;2023-08-12T07:55:05;3.08;;;2.80;;
54899;SDS011;40801;41.924;25.562;2023-08-12T07:57:31;3.20;;;3.00;;
54899;SDS011;40801;41.924;25.562;2023-08-12T07:59:57;3.20;;;3.00;;
54899;SDS011;40801;41.924;25.562;2023-08-12T08:02:22;3.30;;;3.08;;
54899;SDS011;40801;41.924;25.562;2023-08-12T08:04:48;4.03;;;2.85;;
54899;SDS011;40801;41.924;25.562;2023-08-12T08:07:14;3.22;;;3.03;;
54899;SDS011;40801;41.924;25.562;2023-08-12T08:09:41;4.63;;;3.20;;
54899;SDS011;40801;41.924;25.562;2023-08-12T08:12:07;3.33;;;3.03;;
54899;SDS011;40801;41.924;25.562;2023-08-12T08:14:33;3.03;;;2.78;;
54899;SDS011;40801;41.924;25.562;2023-08-12T08:16:59;3.45;;;3.05;;
54899;SDS011;40801;41.924;25.562;2023-08-12T08:19:24;4.25;;;2.88;;
54899;SDS011;40801;41.924;25.562;2023-08-12T08:21:49;4.18;;;3.17;;
54899;SDS011;40801;41.924;25.562;2023-08-12T08:24:15;3.90;;;3.17;;
54899;SDS011;40801;41.924;25.562;2023-08-12T08:26:40;2.92;;;2.60;;
54899;SDS011;40801;41.924;25.562;2023-08-12T08:29:06;3.13;;;2.88;;
54899;SDS011;40801;41.924;25.562;2023-08-12T08:31:31;3.63;;;3.03;;
54899;SDS011;40801;41.924;25.562;2023-08-12T08:33:57;4.75;;;3.35;;
54899;SDS011;40801;41.924;25.562;2023-08-12T08:36:23;3.15;;;2.95;;
54899;SDS011;40801;41.924;25.562;2023-08-12T08:38:49;2.88;;;2.67;;
54899;SDS011;40801;41.924;25.562;2023-08-12T08:41:16;5.25;;;3.13;;
54899;SDS011;40801;41.924;25.562;2023-08-12T08:43:42;2.63;;;2.53;;
54899;SDS011;40801;41.924;25.562;2023-08-12T08:46:11;4.65;;;2.35;;
54899;SDS011;40801;41.924;25.562;2023-08-12T08:48:44;2.95;;;2.67;;
54899;SDS011;40801;41.924;25.562;2023-08-12T08:51:12;3.10;;;2.40;;
54899;SDS011;40801;41.924;25.562;2023-08-12T08:53:38;3.17;;;2.88;;
54899;SDS011;40801;41.924;25.562;2023-08-12T08:56:07;3.33;;;2.88;;
54899;SDS011;40801;41.924;25.562;2023-08-12T08:58:36;3.60;;;3.20;;
54899;SDS011;40801;41.924;25.562;2023-08-12T09:01:21;2.90;;;2.70;;
54899;SDS011;40801;41.924;25.562;2023-08-12T09:03:47;3.88;;;2.80;;
54899;SDS011;40801;41.924;25.562;2023-08-12T09:06:15;3.30;;;3.00;;
54899;SDS011;40801;41.924;25.562;2023-08-12T09:08:43;3.55;;;2.50;;
54899;SDS011;40801;41.924;25.562;2023-08-12T09:11:10;3.20;;;2.75;;
54899;SDS011;40801;41.924;25.562;2023-08-12T09:13:38;2.80;;;2.50;;
54899;SDS011;40801;41.924;25.562;2023-08-12T09:16:03;2.97;;;2.78;;
54899;SDS011;40801;41.924;25.562;2023-08-12T09:18:29;3.40;;;3.03;;
54899;SDS011;40801;41.924;25.562;2023-08-12T09:20:55;3.38;;;3.08;;
54899;SDS011;40801;41.924;25.562;2023-08-12T09:23:21;3.38;;;2.80;;
54899;SDS011;40801;41.924;25.562;2023-08-12T09:25:47;2.65;;;2.40;;
54899;SDS011;40801;41.924;25.562;2023-08-12T09:28:13;2.92;;;2.72;;
54899;SDS011;40801;41.924;25.562;2023-08-12T09:30:39;2.58;;;2.38;;
54899;SDS011;40801;41.924;25.562;2023-08-12T09:33:06;2.90;;;2.70;;
54899;SDS011;40801;41.924;25.562;2023-08-12T09:35:33;2.97;;;2.75;;
54899;SDS011;40801;41.924;25.562;2023-08-12T09:38:01;2.83;;;2.60;;
54899;SDS011;40801;41.924;25.562;2023-08-12T09:40:27;2.67;;;2.58;;
54899;SDS011;40801;41.924;25.562;2023-08-12T09:42:53;3.10;;;2.90;;
54899;SDS011;40801;41.924;25.562;2023-08-12T09:45:22;4.25;;;2.97;;
54899;SDS011;40801;41.924;25.562;2023-08-12T09:47:49;2.95;;;2.67;;
54899;SDS011;40801;41.924;25.562;2023-08-12T09:50:14;3.03;;;2.72;;
54899;SDS011;40801;41.924;25.562;2023-08-12T09:52:40;3.28;;;2.60;;
54899;SDS011;40801;41.924;25.562;2023-08-12T09:55:05;2.92;;;2.70;;
54899;SDS011;40801;41.924;25.562;2023-08-12T09:57:33;2.97;;;2.78;;
54899;SDS011;40801;41.924;25.562;2023-08-12T10:02:28;3.38;;;2.70;;
54899;SDS011;40801;41.924;25.562;2023-08-12T10:04:54;3.83;;;2.53;;
54899;SDS011;40801;41.924;25.562;2023-08-12T10:07:23;3.03;;;2.83;;
54899;SDS011;40801;41.924;25.562;2023-08-12T10:09:50;2.25;;;2.15;;
54899;SDS011;40801;41.924;25.562;2023-08-12T10:12:15;2.95;;;2.65;;
54899;SDS011;40801;41.924;25.562;2023-08-12T10:14:42;2.28;;;2.00;;
54899;SDS011;40801;41.924;25.562;2023-08-12T10:17:08;2.88;;;2.60;;
54899;SDS011;40801;41.924;25.562;2023-08-12T10:19:34;3.22;;;2.13;;
54899;SDS011;40801;41.924;25.562;2023-08-12T10:22:02;2.17;;;2.00;;
54899;SDS011;40801;41.924;25.562;2023-08-12T10:24:28;5.50;;;2.20;;
54899;SDS011;40801;41.924;25.562;2023-08-12T10:26:54;2.30;;;2.20;;
54899;SDS011;40801;41.924;25.562;2023-08-12T10:29:20;2.20;;;2.00;;
54899;SDS011;40801;41.924;25.562;2023-08-12T10:31:47;2.63;;;2.35;;
54899;SDS011;40801;41.924;25.562;2023-08-12T10:34:20;3.75;;;2.50;;
54899;SDS011;40801;41.924;25.562;2023-08-12T10:36:47;2.30;;;2.13;;
54899;SDS011;40801;41.924;25.562;2023-08-12T10:39:13;1.95;;;1.85;;
54899;SDS011;40801;41.924;25.562;2023-08-12T10:41:39;2.15;;;2.05;;
54899;SDS011;40801;41.924;25.562;2023-08-12T10:44:15;2.88;;;2.35;;
54899;SDS011;40801;41.924;25.562;2023-08-12T10:46:40;2.95;;;2.00;;
54899;SDS011;40801;41.924;25.562;2023-08-12T10:49:15;3.17;;;2.42;;
54899;SDS011;40801;41.924;25.562;2023-08-12T10:51:44;3.50;;;2.65;;
54899;SDS011;40801;41.924;25.562;2023-08-12T10:54:23;2.55;;;2.42;;
54899;SDS011;40801;41.924;25.562;2023-08-12T11:05:07;2.50;;;2.30;;
54899;SDS011;40801;41.924;25.562;2023-08-12T11:10:21;2.43;;;2.33;;
54899;SDS011;40801;41.924;25.562;2023-08-12T11:15:43;2.15;;;2.05;;
54899;SDS011;40801;41.924;25.562;2023-08-12T11:18:13;2.47;;;2.30;;
54899;SDS011;40801;41.924;25.562;2023-08-12T11:20:41;2.92;;;2.55;;
54899;SDS011;40801;41.924;25.562;2023-08-12T11:23:07;3.35;;;2.65;;
54899;SDS011;40801;41.924;25.562;2023-08-12T11:25:34;2.85;;;2.58;;
54899;SDS011;40801;41.924;25.562;2023-08-12T11:28:01;2.95;;;2.70;;
54899;SDS011;40801;41.924;25.562;2023-08-12T11:30:26;5.75;;;2.40;;
54899;SDS011;40801;41.924;25.562;2023-08-12T11:32:53;3.05;;;2.75;;
54899;SDS011;40801;41.924;25.562;2023-08-12T11:35:22;2.83;;;2.20;;
54899;SDS011;40801;41.924;25.562;2023-08-12T11:37:49;2.90;;;2.70;;
54899;SDS011;40801;41.924;25.562;2023-08-12T11:40:18;3.13;;;2.83;;
54899;SDS011;40801;41.924;25.562;2023-08-12T11:42:44;2.95;;;2.75;;
54899;SDS011;40801;41.924;25.562;2023-08-12T11:45:12;2.95;;;2.65;;
54899;SDS011;40801;41.924;25.562;2023-08-12T11:47:38;2.42;;;2.20;;
54899;SDS011;40801;41.924;25.562;2023-08-12T11:50:05;3.40;;;2.20;;
54899;SDS011;40801;41.924;25.562;2023-08-12T11:52:33;2.97;;;2.50;;
54899;SDS011;40801;41.924;25.562;2023-08-12T11:54:59;2.95;;;2.70;;
54899;SDS011;40801;41.924;25.562;2023-08-12T11:57:26;2.70;;;1.90;;
54899;SDS011;40801;41.924;25.562;2023-08-12T11:59:53;3.15;;;2.60;;
54899;SDS011;40801;41.924;25.562;2023-08-12T12:02:30;2.55;;;2.40;;
54899;SDS011;40801;41.924;25.562;2023-08-12T12:04:55;3.20;;;2.80;;
54899;SDS011;40801;41.924;25.562;2023-08-12T12:07:23;3.85;;;2.38;;
54899;SDS011;40801;41.924;25.562;2023-08-12T12:09:51;2.58;;;2.40;;
54899;SDS011;40801;41.924;25.562;2023-08-12T12:12:17;3.42;;;2.72;;
54899;SDS011;40801;41.924;25.562;2023-08-12T12:14:47;2.90;;;2.70;;
54899;SDS011;40801;41.924;25.562;2023-08-12T12:17:14;2.78;;;2.58;;
54899;SDS011;40801;41.924;25.562;2023-08-12T12:19:40;2.97;;;2.78;;
54899;SDS011;40801;41.924;25.562;2023-08-12T12:22:06;3.92;;;3.63;;
54899;SDS011;40801;41.924;25.562;2023-08-12T12:24:31;3.25;;;2.88;;
54899;SDS011;40801;41.924;25.562;2023-08-12T12:27:08;5.40;;;3.08;;
54899;SDS011;40801;41.924;25.562;2023-08-12T12:29:34;3.35;;;2.83;;
54899;SDS011;40801;41.924;25.562;2023-08-12T12:31:59;3.35;;;3.13;;
54899;SDS011;40801;41.924;25.562;2023-08-12T12:34:25;4.35;;;3.22;;
54899;SDS011;40801;41.924;25.562;2023-08-12T12:36:50;2.72;;;2.50;;
54899;SDS011;40801;41.924;25.562;2023-08-12T12:39:15;3.35;;;3.05;;
54899;SDS011;40801;41.924;25.562;2023-08-12T12:41:42;2.92;;;2.72;;
54899;SDS011;40801;41.924;25.562;2023-08-12T12:44:07;4.43;;;2.80;;
54899;SDS011;40801;41.924;25.562;2023-08-12T12:46:32;3.38;;;2.95;;
54899;SDS011;40801;41.924;25.562;2023-08-12T12:48:58;4.07;;;3.13;;
54899;SDS011;40801;41.924;25.562;2023-08-12T12:51:23;3.72;;;3.42;;
54899;SDS011;40801;41.924;25.562;2023-08-12T12:53:48;4.57;;;3.55;;
54899;SDS011;40801;41.924;25.562;2023-08-12T12:56:14;3.28;;;3.00;;
54899;SDS011;40801;41.924;25.562;2023-08-12T12:58:39;3.38;;;3.08;;
54899;SDS011;40801;41.924;25.562;2023-08-12T13:01:05;3.63;;;3.35;;
54899;SDS011;40801;41.924;25.562;2023-08-12T13:03:31;5.05;;;3.33;;
54899;SDS011;40801;41.924;25.562;2023-08-12T13:05:56;3.65;;;3.30;;
54899;SDS011;40801;41.924;25.562;2023-08-12T13:08:23;4.85;;;3.25;;
54899;SDS011;40801;41.924;25.562;2023-08-12T13:10:49;3.25;;;3.05;;
54899;SDS011;40801;41.924;25.562;2023-08-12T13:13:15;2.97;;;2.78;;
54899;SDS011;40801;41.924;25.562;2023-08-12T13:15:41;5.55;;;2.90;;
54899;SDS011;40801;41.924;25.562;2023-08-12T13:18:06;3.40;;;2.83;;
54899;SDS011;40801;41.924;25.562;2023-08-12T13:20:32;3.42;;;3.08;;
54899;SDS011;40801;41.924;25.562;2023-08-12T13:22:57;4.22;;;3.15;;
54899;SDS011;40801;41.924;25.562;2023-08-12T13:25:23;2.90;;;2.47;;
54899;SDS011;40801;41.924;25.562;2023-08-12T13:27:48;3.00;;;2.80;;
54899;SDS011;40801;41.924;25.562;2023-08-12T13:30:13;2.67;;;2.47;;
54899;SDS011;40801;41.924;25.562;2023-08-12T13:32:39;3.30;;;3.00;;
54899;SDS011;40801;41.924;25.562;2023-08-12T13:35:04;2.45;;;2.35;;
54899;SDS011;40801;41.924;25.562;2023-08-12T13:37:30;2.65;;;2.45;;
54899;SDS011;40801;41.924;25.562;2023-08-12T13:39:57;4.00;;;2.80;;
54899;SDS011;40801;41.924;25.562;2023-08-12T13:42:22;2.85;;;2.65;;
54899;SDS011;40801;41.924;25.562;2023-08-12T13:44:48;4.70;;;3.03;;
54899;SDS011;40801;41.924;25.562;2023-08-12T13:47:13;3.78;;;3.35;;
54899;SDS011;40801;41.924;25.562;2023-08-12T13:49:39;3.13;;;2.90;;
54899;SDS011;40801;41.924;25.562;2023-08-12T13:52:04;3.08;;;2.78;;
54899;SDS011;40801;41.924;25.562;2023-08-12T13:54:30;3.72;;;3.42;;
54899;SDS011;40801;41.924;25.562;2023-08-12T13:56:55;3.45;;;3.25;;
54899;SDS011;40801;41.924;25.562;2023-08-12T13:59:20;3.42;;;3.22;;
54899;SDS011;40801;41.924;25.562;2023-08-12T14:01:46;3.40;;;3.10;;
54899;SDS011;40801;41.924;25.562;2023-08-12T14:04:11;3.00;;;2.67;;
54899;SDS011;40801;41.924;25.562;2023-08-12T14:06:36;3.45;;;2.75;;
54899;SDS011;40801;41.924;25.562;2023-08-12T14:09:02;3.63;;;3.08;;
54899;SDS011;40801;41.924;25.562;2023-08-12T14:11:28;4.90;;;2.65;;
54899;SDS011;40801;41.924;25.562;2023-08-12T14:13:53;4.50;;;3.20;;
54899;SDS011;40801;41.924;25.562;2023-08-12T14:16:19;2.70;;;2.50;;
54899;SDS011;40801;41.924;25.562;2023-08-12T14:18:44;4.32;;;3.35;;
54899;SDS011;40801;41.924;25.562;2023-08-12T14:21:09;4.40;;;3.17;;
54899;SDS011;40801;41.924;25.562;2023-08-12T14:23:35;2.95;;;2.58;;
54899;SDS011;40801;41.924;25.562;2023-08-12T14:26:00;3.08;;;2.88;;
54899;SDS011;40801;41.924;25.562;2023-08-12T14:28:26;3.03;;;2.83;;
54899;SDS011;40801;41.924;25.562;2023-08-12T14:30:51;3.17;;;2.88;;
54899;SDS011;40801;41.924;25.562;2023-08-12T14:33:18;2.80;;;2.50;;
54899;SDS011;40801;41.924;25.562;2023-08-12T14:35:44;3.50;;;3.20;;
54899;SDS011;40801;41.924;25.562;2023-08-12T14:38:09;3.00;;;2.67;;
54899;SDS011;40801;41.924;25.562;2023-08-12T14:40:35;3.80;;;2.97;;
54899;SDS011;40801;41.924;25.562;2023-08-12T14:43:00;2.97;;;2.78;;
54899;SDS011;40801;41.924;25.562;2023-08-12T14:45:26;3.20;;;3.00;;